createdAt,value
2022-11-14T00:01:33.354Z,0.10
2022-11-14T00:04:02.329Z,0.07
2022-11-14T00:06:30.256Z,0.08
2022-11-14T00:08:58.180Z,0.08
2022-11-14T00:11:26.259Z,0.07
2022-11-14T00:13:54.194Z,0.08
2022-11-14T00:16:22.144Z,0.06
2022-11-14T00:18:50.499Z,0.06
2022-11-14T00:21:18.464Z,0.07
2022-11-14T00:23:46.367Z,0.07
2022-11-14T00:26:17.072Z,0.07
2022-11-14T00:28:45.080Z,0.08
2022-11-14T00:31:13.114Z,0.08
2022-11-14T00:33:42.789Z,0.08
2022-11-14T00:36:10.771Z,0.08
2022-11-14T00:38:38.843Z,0.09
2022-11-14T00:41:08.912Z,0.07
2022-11-14T00:43:36.950Z,0.07
2022-11-14T00:46:04.971Z,0.07
2022-11-14T00:48:33.103Z,0.06
2022-11-14T00:51:01.046Z,0.06
2022-11-14T00:53:29.043Z,-0.04
2022-11-14T00:55:58.167Z,0.06
2022-11-14T00:58:26.216Z,0.03
2022-11-14T01:00:54.925Z,0.07
2022-11-14T01:03:23.267Z,0.06
2022-11-14T01:05:52.209Z,0.07
2022-11-14T01:08:21.190Z,0.07
2022-11-14T01:10:52.122Z,0.06
2022-11-14T01:13:20.431Z,0.06
2022-11-14T01:15:50.554Z,0.05
2022-11-14T01:18:23.314Z,0.07
2022-11-14T01:20:51.287Z,0.07
2022-11-14T01:23:19.517Z,0.02
2022-11-14T01:25:47.766Z,0.06
2022-11-14T01:28:19.003Z,0.08
2022-11-14T01:30:47.390Z,0.07
2022-11-14T01:33:15.543Z,0.06
2022-11-14T01:35:43.917Z,0.06
2022-11-14T01:38:15.526Z,0.05
2022-11-14T01:40:48.149Z,0.04
2022-11-14T01:43:19.236Z,0.04
2022-11-14T01:45:57.099Z,0.05
2022-11-14T01:48:38.256Z,0.04
2022-11-14T01:51:22.904Z,0.04
2022-11-14T01:53:54.631Z,0.04
2022-11-14T01:56:47.496Z,0.01
2022-11-14T01:59:22.333Z,0.05
2022-11-14T02:01:53.354Z,0.04
2022-11-14T02:04:34.320Z,0.05
2022-11-14T02:07:06.471Z,0.03
2022-11-14T02:09:39.762Z,0.04
2022-11-14T02:12:13.011Z,0.03
2022-11-14T02:14:43.336Z,0.05
2022-11-14T02:20:11.757Z,0.05
2022-11-14T02:22:41.347Z,0.06
2022-11-14T02:25:10.821Z,0.07
2022-11-14T02:27:41.426Z,0.06
2022-11-14T02:30:13.636Z,0.07
2022-11-14T02:35:31.222Z,0.07
2022-11-14T02:37:59.222Z,0.09
2022-11-14T02:40:27.171Z,0.08
2022-11-14T02:42:56.117Z,0.09
2022-11-14T02:45:24.427Z,0.12
2022-11-14T02:47:52.319Z,0.12
2022-11-14T02:50:20.488Z,0.10
2022-11-14T02:52:48.439Z,0.13
2022-11-14T02:55:16.486Z,0.10
2022-11-14T02:57:44.599Z,0.11
2022-11-14T03:00:15.155Z,0.13
2022-11-14T03:02:43.641Z,0.21
2022-11-14T03:05:11.869Z,0.22
2022-11-14T03:07:39.929Z,0.23
2022-11-14T03:10:10.367Z,0.25
2022-11-14T03:12:38.869Z,0.25
2022-11-14T03:15:08.591Z,0.28
2022-11-14T03:17:36.697Z,0.30
2022-11-14T03:20:05.106Z,0.25
2022-11-14T03:22:33.365Z,0.27
2022-11-14T03:25:01.557Z,0.34
2022-11-14T03:27:31.414Z,0.34
2022-11-14T03:30:01.029Z,0.28
2022-11-14T03:32:29.917Z,0.35
2022-11-14T03:34:57.931Z,0.34
2022-11-14T03:37:28.036Z,0.33
2022-11-14T03:39:56.039Z,0.28
2022-11-14T03:42:23.977Z,0.36
2022-11-14T03:44:52.125Z,0.37
2022-11-14T03:47:20.115Z,0.38
2022-11-14T03:49:48.121Z,0.40
2022-11-14T03:52:16.373Z,0.41
2022-11-14T03:54:44.374Z,0.41
2022-11-14T03:57:12.371Z,0.36
2022-11-14T03:59:41.459Z,0.39
2022-11-14T04:02:09.625Z,0.45
2022-11-14T04:04:37.650Z,0.45
2022-11-14T04:07:06.014Z,0.45
2022-11-14T04:09:33.923Z,0.46
2022-11-14T04:12:02.006Z,0.47
2022-11-14T04:14:33.056Z,0.47
2022-11-14T04:17:01.768Z,0.46
2022-11-14T04:19:31.535Z,0.43
2022-11-14T04:21:59.755Z,0.51
2022-11-14T04:24:27.741Z,0.53
2022-11-14T04:26:55.767Z,0.54
2022-11-14T04:29:25.191Z,0.56
2022-11-14T04:31:53.234Z,0.59
2022-11-14T04:34:21.179Z,0.57
2022-11-14T04:36:53.070Z,0.52
2022-11-14T04:39:21.074Z,0.54
2022-11-14T04:41:49.087Z,0.61
2022-11-14T04:44:17.121Z,0.62
2022-11-14T04:46:45.154Z,0.62
2022-11-14T04:49:13.233Z,0.62
2022-11-14T04:51:41.353Z,0.59
2022-11-14T04:54:09.392Z,0.70
2022-11-14T04:56:37.488Z,0.74
2022-11-14T04:59:05.573Z,0.75
2022-11-14T05:01:33.649Z,0.74
2022-11-14T05:04:01.724Z,0.74
2022-11-14T05:06:29.898Z,0.66
2022-11-14T05:08:57.957Z,0.71
2022-11-14T05:11:29.167Z,0.70
2022-11-14T05:13:57.695Z,0.62
2022-11-14T05:16:25.819Z,0.65
2022-11-14T05:18:56.520Z,0.50
2022-11-14T05:21:25.503Z,0.62
2022-11-14T05:23:53.609Z,0.61
2022-11-14T05:26:21.760Z,0.59
2022-11-14T05:28:49.899Z,0.59
2022-11-14T05:31:18.558Z,0.54
2022-11-14T05:33:49.951Z,0.44
2022-11-14T05:36:20.933Z,0.55
2022-11-14T05:38:48.889Z,0.46
2022-11-14T05:41:18.992Z,0.49
2022-11-14T05:43:47.973Z,0.47
2022-11-14T05:46:17.685Z,0.46
2022-11-14T05:48:45.413Z,0.48
2022-11-14T05:51:14.959Z,0.48
2022-11-14T05:53:43.141Z,0.49
2022-11-14T05:56:13.274Z,0.49
2022-11-14T05:58:41.480Z,0.49
2022-11-14T06:01:13.391Z,0.53
2022-11-14T06:03:43.844Z,0.55
2022-11-14T06:06:15.108Z,0.54
2022-11-14T06:08:43.921Z,0.55
2022-11-14T06:11:15.812Z,0.60
2022-11-14T06:13:44.601Z,0.58
2022-11-14T06:16:15.179Z,0.64
2022-11-14T06:18:44.423Z,0.65
2022-11-14T06:21:20.417Z,0.65
2022-11-14T06:23:50.450Z,0.64
2022-11-14T06:26:23.276Z,0.63
2022-11-14T06:28:53.051Z,0.61
2022-11-14T06:31:22.679Z,0.61
2022-11-14T06:33:53.696Z,0.57
2022-11-14T06:36:21.734Z,0.52
2022-11-14T06:38:49.718Z,0.49
2022-11-14T06:41:22.133Z,0.36
2022-11-14T06:43:53.735Z,0.49
2022-11-14T06:46:23.391Z,0.51
2022-11-14T06:48:53.102Z,0.52
2022-11-14T06:51:20.821Z,0.52
2022-11-14T06:53:48.942Z,0.51
2022-11-14T06:56:18.775Z,0.50
2022-11-14T06:58:49.107Z,0.51
2022-11-14T07:01:22.643Z,0.50
2022-11-14T07:03:51.467Z,0.50
2022-11-14T07:06:27.432Z,0.49
2022-11-14T07:08:57.359Z,0.49
2022-11-14T07:11:29.972Z,0.48
2022-11-14T07:14:03.023Z,0.29
2022-11-14T07:16:33.889Z,0.45
2022-11-14T07:19:03.865Z,0.19
2022-11-14T07:21:36.780Z,0.41
2022-11-14T07:24:05.019Z,0.38
2022-11-14T07:26:33.133Z,0.37
2022-11-14T07:29:02.947Z,0.32
2022-11-14T07:31:31.495Z,0.27
2022-11-14T07:33:59.567Z,0.30
2022-11-14T07:36:27.652Z,0.29
2022-11-14T07:38:55.747Z,0.30
2022-11-14T07:41:23.864Z,0.29
2022-11-14T07:43:52.782Z,0.29
2022-11-14T07:46:20.733Z,0.24
2022-11-14T07:48:48.837Z,0.26
2022-11-14T07:51:20.594Z,0.25
2022-11-14T07:53:48.784Z,0.26
2022-11-14T07:56:18.021Z,0.26
2022-11-14T07:58:46.186Z,0.27
2022-11-14T08:01:15.410Z,0.28
2022-11-14T08:03:46.239Z,0.29
2022-11-14T08:06:17.333Z,0.23
2022-11-14T08:08:45.602Z,0.22
2022-11-14T08:11:15.134Z,0.28
2022-11-14T08:13:52.534Z,0.27
2022-11-14T08:16:20.412Z,0.25
2022-11-14T08:18:48.280Z,0.23
2022-11-14T08:21:17.230Z,0.20
2022-11-14T08:23:46.006Z,0.18
2022-11-14T08:26:15.467Z,0.16
2022-11-14T08:28:44.521Z,0.17
2022-11-14T08:31:14.308Z,0.16
2022-11-14T08:33:42.282Z,0.13
2022-11-14T08:36:12.491Z,0.14
2022-11-14T08:38:40.446Z,0.13
2022-11-14T08:41:08.501Z,-0.15
2022-11-14T08:43:36.665Z,0.09
2022-11-14T08:46:06.091Z,0.05
2022-11-14T08:48:34.547Z,0.04
2022-11-14T08:51:08.494Z,0.03
2022-11-14T08:53:36.590Z,-0.01
2022-11-14T08:56:04.713Z,-0.04
2022-11-14T08:58:33.838Z,-0.07
2022-11-14T09:01:04.254Z,-0.14
2022-11-14T09:03:32.473Z,-0.18
2022-11-14T09:06:02.294Z,-0.20
2022-11-14T09:08:32.244Z,-0.22
2022-11-14T09:11:06.019Z,-0.27
2022-11-14T09:13:36.315Z,-0.35
2022-11-14T09:16:04.376Z,-0.36
2022-11-14T09:18:33.730Z,-0.38
2022-11-14T09:21:02.897Z,-0.40
2022-11-14T09:23:31.268Z,-0.41
2022-11-14T09:26:05.353Z,-0.43
2022-11-14T09:28:34.368Z,-0.45
2022-11-14T09:31:04.872Z,-0.49
2022-11-14T09:33:34.185Z,-0.53
2022-11-14T09:36:06.498Z,-0.56
2022-11-14T09:38:38.426Z,-0.57
2022-11-14T09:41:11.136Z,-0.58
2022-11-14T09:44:17.743Z,-0.59
2022-11-14T09:46:59.246Z,-0.61
2022-11-14T09:49:42.297Z,-0.63
2022-11-14T09:52:16.455Z,-0.67
2022-11-14T09:54:55.241Z,-0.68
2022-11-14T09:57:23.446Z,-0.71
2022-11-14T09:59:53.335Z,-0.70
2022-11-14T10:02:53.143Z,-0.72
2022-11-14T10:05:46.313Z,-0.74
2022-11-14T10:08:29.316Z,-0.81
2022-11-14T10:11:18.472Z,-0.77
2022-11-14T10:14:09.518Z,-0.77
2022-11-14T10:16:51.273Z,-0.84
2022-11-14T10:19:55.331Z,-0.77
2022-11-14T10:22:29.429Z,-0.80
2022-11-14T10:25:00.117Z,-0.82
2022-11-14T10:27:58.506Z,-0.83
2022-11-14T10:30:42.351Z,-0.85
2022-11-14T10:33:42.244Z,-0.86
2022-11-14T10:36:47.067Z,-0.89
2022-11-14T10:39:41.236Z,-0.91
2022-11-14T10:42:18.040Z,-0.90
2022-11-14T10:45:18.617Z,-0.88
2022-11-14T10:48:11.356Z,-0.87
2022-11-14T10:51:23.399Z,-0.87
2022-11-14T10:54:01.285Z,-0.86
2022-11-14T10:56:31.096Z,-0.85
2022-11-14T10:58:59.159Z,-0.89
2022-11-14T11:02:05.223Z,-0.83
2022-11-14T11:04:37.985Z,-0.84
2022-11-14T11:07:09.018Z,-0.81
2022-11-14T11:09:58.375Z,-0.82
2022-11-14T11:12:39.090Z,-0.90
2022-11-14T11:15:25.352Z,-0.78
2022-11-14T11:18:03.271Z,-0.77
2022-11-14T11:20:37.194Z,-0.76
2022-11-14T11:23:08.005Z,-0.76
2022-11-14T11:25:37.568Z,-0.78
2022-11-14T11:28:14.851Z,-0.75
2022-11-14T11:31:03.815Z,-0.74
2022-11-14T11:33:37.006Z,-0.77
2022-11-14T11:36:21.309Z,-0.77
2022-11-14T11:38:51.749Z,-0.74
2022-11-14T11:44:23.068Z,-0.72
2022-11-14T11:46:58.495Z,-0.71
2022-11-14T11:49:51.746Z,-0.70
2022-11-14T11:52:35.336Z,-0.75
2022-11-14T11:55:19.186Z,-0.69
2022-11-14T11:57:52.504Z,-0.76
2022-11-14T12:00:22.544Z,-0.70
2022-11-14T12:02:54.899Z,-0.70
2022-11-14T12:05:41.560Z,-0.67
2022-11-14T12:08:24.152Z,-0.64
2022-11-14T12:10:54.929Z,-0.64
2022-11-14T12:14:03.206Z,-0.63
2022-11-14T12:16:56.533Z,-0.61
2022-11-14T12:19:41.281Z,-0.61
2022-11-14T12:22:41.630Z,-0.59
2022-11-14T12:25:33.591Z,-0.59
2022-11-14T12:28:21.019Z,-0.58
2022-11-14T12:30:55.230Z,-0.57
2022-11-14T12:33:37.795Z,-0.56
2022-11-14T12:36:12.545Z,-0.53
2022-11-14T12:38:53.814Z,-0.52
2022-11-14T12:41:38.812Z,-0.51
2022-11-14T12:44:29.308Z,-0.49
2022-11-14T12:47:08.226Z,-0.47
2022-11-14T12:49:49.526Z,-0.46
2022-11-14T12:52:43.739Z,-0.45
2022-11-14T12:55:27.108Z,-0.45
2022-11-14T12:58:16.607Z,-0.43
2022-11-14T13:00:47.668Z,-0.41
2022-11-14T13:03:42.005Z,-0.41
2022-11-14T13:06:25.694Z,-0.39
2022-11-14T13:09:03.005Z,-0.38
2022-11-14T13:11:58.630Z,-0.37
2022-11-14T13:14:45.303Z,-0.35
2022-11-14T13:17:37.947Z,-0.35
2022-11-14T13:20:48.811Z,-0.33
2022-11-14T13:23:28.980Z,-0.32
2022-11-14T13:26:13.254Z,-0.30
2022-11-14T13:28:54.502Z,-0.29
2022-11-14T13:31:27.819Z,-0.27
2022-11-14T13:34:01.263Z,-0.27
2022-11-14T13:36:47.907Z,-0.25
2022-11-14T13:39:36.135Z,-0.24
2022-11-14T13:42:32.572Z,-0.21
2022-11-14T13:45:24.585Z,-0.20
2022-11-14T13:48:14.078Z,-0.18
2022-11-14T13:50:43.942Z,-0.17
2022-11-14T13:53:19.766Z,-0.16
2022-11-14T13:56:05.730Z,-0.14
2022-11-14T13:58:42.900Z,-0.12
2022-11-14T14:01:33.033Z,-0.11
2022-11-14T14:04:26.815Z,-0.08
2022-11-14T14:07:05.296Z,-0.06
2022-11-14T14:10:02.644Z,-0.05
2022-11-14T14:12:42.788Z,-0.03
2022-11-14T14:15:33.354Z,-0.02
2022-11-14T14:18:25.028Z,-0.01
2022-11-14T14:21:07.027Z,0.01
2022-11-14T14:23:55.893Z,0.02
2022-11-14T14:26:47.907Z,0.04
2022-11-14T14:29:40.180Z,0.05
2022-11-14T14:32:19.672Z,0.01
2022-11-14T14:34:48.787Z,0.07
2022-11-14T14:37:23.438Z,0.06
2022-11-14T14:40:04.062Z,0.11
2022-11-14T14:42:39.816Z,0.09
2022-11-14T14:45:20.303Z,0.16
2022-11-14T14:47:52.123Z,0.17
2022-11-14T14:50:28.945Z,0.19
2022-11-14T14:53:00.275Z,0.15
2022-11-14T14:55:33.255Z,0.22
2022-11-14T14:58:23.667Z,0.26
2022-11-14T15:00:56.870Z,0.26
2022-11-14T15:03:32.819Z,0.32
2022-11-14T15:06:06.871Z,0.36
2022-11-14T15:08:40.263Z,0.38
2022-11-14T15:11:08.678Z,0.39
2022-11-14T15:13:39.315Z,0.40
2022-11-14T15:16:09.286Z,0.36
2022-11-14T15:18:38.092Z,0.45
2022-11-14T15:21:22.184Z,0.45
2022-11-14T15:24:19.727Z,0.39
2022-11-14T15:26:50.617Z,0.45
2022-11-14T15:29:28.863Z,0.46
2022-11-14T15:32:00.132Z,0.46
2022-11-14T15:34:34.971Z,0.44
2022-11-14T15:37:19.654Z,0.44
2022-11-14T15:39:49.232Z,0.43
2022-11-14T15:42:29.861Z,0.42
2022-11-14T15:44:57.937Z,0.42
2022-11-14T15:47:31.578Z,0.42
2022-11-14T15:50:07.829Z,0.42
2022-11-14T15:52:52.922Z,0.42
2022-11-14T15:55:25.835Z,0.41
2022-11-14T15:58:20.958Z,0.43
2022-11-14T16:00:56.183Z,0.43
2022-11-14T16:03:24.852Z,0.36
2022-11-14T16:05:52.837Z,0.41
2022-11-14T16:08:21.017Z,0.34
2022-11-14T16:10:49.055Z,0.37
2022-11-14T16:13:17.112Z,0.39
2022-11-14T16:15:45.272Z,0.39
2022-11-14T16:18:13.588Z,0.39
2022-11-14T16:20:42.695Z,0.38
2022-11-14T16:23:18.841Z,0.37
2022-11-14T16:25:46.830Z,0.26
2022-11-14T16:28:14.782Z,0.32
2022-11-14T16:30:42.951Z,0.30
2022-11-14T16:33:10.980Z,0.31
2022-11-14T16:35:39.004Z,0.29
2022-11-14T16:38:07.098Z,0.28
2022-11-14T16:40:35.097Z,0.17
2022-11-14T16:43:04.144Z,0.25
2022-11-14T16:45:32.301Z,0.26
2022-11-14T16:48:00.295Z,0.26
2022-11-14T16:50:28.237Z,0.26
2022-11-14T16:52:56.345Z,0.26
2022-11-14T16:55:24.380Z,0.22
2022-11-14T16:57:52.384Z,0.23
2022-11-14T17:00:23.835Z,0.24
2022-11-14T17:02:51.800Z,0.24
2022-11-14T17:05:19.809Z,0.24
2022-11-14T17:07:48.154Z,0.23
2022-11-14T17:10:16.180Z,0.24
2022-11-14T17:12:44.468Z,0.25
2022-11-14T17:15:14.143Z,0.27
2022-11-14T17:17:41.825Z,0.28
2022-11-14T17:20:11.432Z,0.23
2022-11-14T17:22:42.133Z,0.29
2022-11-14T17:25:11.171Z,0.27
2022-11-14T17:27:39.140Z,0.34
2022-11-14T17:30:10.312Z,0.34
2022-11-14T17:32:38.410Z,0.36
2022-11-14T17:35:06.897Z,0.39
2022-11-14T17:37:38.390Z,0.40
2022-11-14T17:40:10.218Z,0.37
2022-11-14T17:42:42.377Z,0.46
2022-11-14T17:45:10.820Z,0.52
2022-11-14T17:47:38.906Z,0.56
2022-11-14T17:50:07.387Z,0.62
2022-11-14T17:52:35.667Z,0.38
2022-11-14T17:55:03.862Z,0.71
2022-11-14T17:57:31.997Z,0.76
2022-11-14T18:00:00.898Z,0.78
2022-11-14T18:02:32.654Z,0.80
2022-11-14T18:05:00.571Z,0.82
2022-11-14T18:07:32.741Z,0.82
2022-11-14T18:10:00.744Z,0.74
2022-11-14T18:12:28.849Z,0.79
2022-11-14T18:14:58.917Z,0.75
2022-11-14T18:17:27.888Z,0.76
2022-11-14T18:19:57.172Z,0.75
2022-11-14T18:22:25.474Z,0.75
2022-11-14T18:24:55.799Z,0.75
2022-11-14T18:27:23.761Z,0.73
2022-11-14T18:29:52.598Z,0.74
2022-11-14T18:32:20.681Z,0.74
2022-11-14T18:34:48.676Z,0.78
2022-11-14T18:37:17.652Z,0.79
2022-11-14T18:39:45.513Z,0.80
2022-11-14T18:42:13.489Z,0.83
2022-11-14T18:44:42.578Z,0.86
2022-11-14T18:47:10.623Z,0.88
2022-11-14T18:49:38.644Z,0.91
2022-11-14T18:52:15.672Z,0.85
2022-11-14T18:54:45.452Z,0.92
2022-11-14T18:57:13.475Z,0.93
2022-11-14T18:59:42.488Z,0.91
2022-11-14T19:02:10.521Z,0.90
2022-11-14T19:04:38.518Z,0.91
2022-11-14T19:07:06.795Z,0.93
2022-11-14T19:09:34.817Z,0.93
2022-11-14T19:12:24.896Z,0.93
2022-11-14T19:14:53.580Z,0.94
2022-11-14T19:17:22.962Z,0.92
2022-11-14T19:19:55.274Z,0.92
2022-11-14T19:22:23.235Z,0.92
2022-11-14T19:24:51.243Z,0.86
2022-11-14T19:27:21.088Z,0.94
2022-11-14T19:29:48.760Z,0.94
2022-11-14T19:32:16.737Z,0.95
2022-11-14T19:34:46.347Z,0.72
2022-11-14T19:37:14.086Z,0.99
2022-11-14T19:39:42.051Z,0.97
2022-11-14T19:42:11.011Z,0.98
2022-11-14T19:44:39.001Z,1.01
2022-11-14T19:47:47.383Z,1.02
2022-11-14T19:50:16.821Z,1.03
2022-11-14T19:52:44.779Z,1.04
2022-11-14T19:55:12.909Z,1.07
2022-11-14T19:57:40.866Z,1.11
2022-11-14T20:00:09.519Z,1.12
2022-11-14T20:02:41.259Z,1.07
2022-11-14T20:05:09.699Z,1.14
2022-11-14T20:07:38.360Z,1.15
2022-11-14T20:10:07.032Z,1.14
2022-11-14T20:12:35.566Z,1.17
2022-11-14T20:15:03.709Z,1.14
2022-11-14T20:17:34.460Z,1.19
2022-11-14T20:20:02.520Z,1.21
2022-11-14T20:22:31.080Z,1.23
2022-11-14T20:24:59.409Z,1.26
2022-11-14T20:27:31.730Z,1.27
2022-11-14T20:29:59.693Z,1.29
2022-11-14T20:32:27.964Z,1.31
2022-11-14T20:34:55.946Z,1.32
2022-11-14T20:37:23.862Z,1.33
2022-11-14T20:39:52.057Z,1.36
2022-11-14T20:42:19.950Z,1.36
2022-11-14T20:44:47.953Z,1.36
2022-11-14T20:47:18.408Z,1.35
2022-11-14T20:49:47.486Z,1.38
2022-11-14T20:52:16.729Z,1.40
2022-11-14T20:54:45.675Z,1.40
2022-11-14T20:57:13.670Z,1.40
2022-11-14T20:59:42.234Z,1.40
2022-11-14T21:02:14.146Z,1.41
2022-11-14T21:04:42.281Z,1.41
2022-11-14T21:07:10.480Z,1.36
2022-11-14T21:09:40.337Z,1.43
2022-11-14T21:12:08.511Z,1.41
2022-11-14T21:14:36.490Z,1.41
2022-11-14T21:17:05.414Z,1.38
2022-11-14T21:19:33.385Z,1.37
2022-11-14T21:22:01.277Z,1.35
2022-11-14T21:24:33.562Z,1.33
2022-11-14T21:27:07.323Z,1.34
2022-11-14T21:29:36.462Z,1.34
2022-11-14T21:32:04.566Z,1.35
2022-11-14T21:34:34.556Z,1.35
2022-11-14T21:37:03.504Z,1.35
2022-11-14T21:39:31.427Z,1.30
2022-11-14T21:41:59.331Z,1.38
2022-11-14T21:44:29.041Z,1.37
2022-11-14T21:46:56.740Z,1.41
2022-11-14T21:49:24.699Z,1.41
2022-11-14T21:51:54.065Z,1.40
2022-11-14T21:54:21.998Z,1.40
2022-11-14T21:56:49.908Z,1.39
2022-11-14T21:59:22.286Z,1.43
2022-11-14T22:02:10.886Z,1.43
2022-11-14T22:04:39.202Z,1.45
2022-11-14T22:07:09.009Z,1.46
2022-11-14T22:09:42.569Z,1.45
2022-11-14T22:12:16.557Z,1.42
2022-11-14T22:14:44.541Z,1.43
2022-11-14T22:17:12.623Z,1.43
2022-11-14T22:19:40.852Z,1.32
2022-11-14T22:22:09.072Z,1.43
2022-11-14T22:24:37.116Z,1.45
2022-11-14T22:27:06.650Z,1.45
2022-11-14T22:29:34.717Z,1.46
2022-11-14T22:32:03.641Z,1.50
2022-11-14T22:34:32.590Z,1.50
2022-11-14T22:37:00.605Z,1.48
2022-11-14T22:39:28.623Z,1.48
2022-11-14T22:41:56.802Z,1.47
2022-11-14T22:44:24.793Z,1.47
2022-11-14T22:46:52.771Z,1.48
2022-11-14T22:49:21.363Z,1.50
2022-11-14T22:51:49.540Z,1.48
2022-11-14T22:54:17.569Z,1.46
2022-11-14T22:56:47.192Z,1.49
2022-11-14T22:59:14.807Z,1.50
2022-11-14T23:01:42.898Z,1.50
2022-11-14T23:04:11.131Z,1.45
2022-11-14T23:06:39.194Z,1.51
2022-11-14T23:09:07.195Z,1.48
2022-11-14T23:11:36.138Z,1.51
2022-11-14T23:14:04.179Z,1.47
2022-11-14T23:16:34.431Z,1.48
2022-11-14T23:19:05.338Z,1.44
2022-11-14T23:21:36.176Z,1.46
2022-11-14T23:24:11.191Z,1.46
2022-11-14T23:26:39.255Z,1.47
2022-11-14T23:29:07.291Z,1.41
2022-11-14T23:31:37.252Z,1.46
2022-11-14T23:34:06.441Z,1.47
2022-11-14T23:36:34.428Z,1.46
2022-11-14T23:39:02.498Z,1.46
2022-11-14T23:41:31.599Z,1.46
2022-11-14T23:43:59.647Z,1.46
2022-11-14T23:46:27.561Z,1.46
2022-11-14T23:48:57.489Z,1.40
2022-11-14T23:51:25.520Z,1.39
2022-11-14T23:53:53.510Z,1.44
2022-11-14T23:56:21.642Z,1.44
2022-11-14T23:58:49.581Z,1.43
